Terminal Aerodrome Forecast
Issued by NWS

Home | Current Version | Previous Version | Text Only | Print | Product List | Glossary On
Versions: 1 2 3 4 5 6 7 8 9 10 11 12 13 14 15 16 17 18
959
FTUS41 KBTV 172330
TAFSLK
TAF
KSLK 172330Z 1800/1824 23007KT P6SM SCT040
     FM180100 23007KT P6SM BKN015
     FM180500 23007G18KT P6SM BKN015
     FM181400 22009KT P6SM BKN020=

USA.gov is the U.S. government's official web portal to all federal, state and local government web resources and services.